sensor_id;sensor_type;location;lat;lon;timestamp;pressure;altitude;pressure_sealevel;temperature;humidity
30875;BME280;17581;43.222;27.924;2023-09-19T00:02:22;101055.25;;;20.55;63.89
30875;BME280;17581;43.222;27.924;2023-09-19T00:04:48;101089.34;;;20.76;64.02
30875;BME280;17581;43.222;27.924;2023-09-19T00:07:15;101046.34;;;20.61;64.08
30875;BME280;17581;43.222;27.924;2023-09-19T00:09:41;101072.56;;;20.79;63.92
30875;BME280;17581;43.222;27.924;2023-09-19T00:12:09;101090.19;;;20.76;64.06
30875;BME280;17581;43.222;27.924;2023-09-19T00:14:35;101057.47;;;20.60;63.67
30875;BME280;17581;43.222;27.924;2023-09-19T00:17:04;101070.59;;;20.64;64.00
30875;BME280;17581;43.222;27.924;2023-09-19T00:19:33;101079.13;;;20.61;64.23
30875;BME280;17581;43.222;27.924;2023-09-19T00:21:59;101059.06;;;20.46;64.23
30875;BME280;17581;43.222;27.924;2023-09-19T00:24:24;101077.13;;;20.55;64.52
30875;BME280;17581;43.222;27.924;2023-09-19T00:26:49;101055.00;;;20.42;64.73
30875;BME280;17581;43.222;27.924;2023-09-19T00:29:15;101064.88;;;20.43;64.59
30875;BME280;17581;43.222;27.924;2023-09-19T00:31:44;101075.16;;;20.41;64.84
30875;BME280;17581;43.222;27.924;2023-09-19T00:34:10;101067.63;;;20.43;65.10
30875;BME280;17581;43.222;27.924;2023-09-19T00:36:37;101063.88;;;20.44;65.16
30875;BME280;17581;43.222;27.924;2023-09-19T00:39:05;101062.50;;;20.40;65.22
30875;BME280;17581;43.222;27.924;2023-09-19T00:41:33;101066.41;;;20.46;65.31
30875;BME280;17581;43.222;27.924;2023-09-19T00:44:01;101068.13;;;20.47;65.37
30875;BME280;17581;43.222;27.924;2023-09-19T00:46:27;101062.28;;;20.50;65.05
30875;BME280;17581;43.222;27.924;2023-09-19T00:48:53;101056.81;;;20.50;65.22
30875;BME280;17581;43.222;27.924;2023-09-19T00:51:20;101032.84;;;20.29;65.20
30875;BME280;17581;43.222;27.924;2023-09-19T00:53:47;101064.53;;;20.46;65.12
30875;BME280;17581;43.222;27.924;2023-09-19T00:56:14;101064.50;;;20.54;65.10
30875;BME280;17581;43.222;27.924;2023-09-19T00:58:44;101067.53;;;20.59;65.11
30875;BME280;17581;43.222;27.924;2023-09-19T01:01:09;101060.38;;;20.58;65.03
30875;BME280;17581;43.222;27.924;2023-09-19T01:03:37;101076.03;;;20.64;64.91
30875;BME280;17581;43.222;27.924;2023-09-19T01:06:02;101068.91;;;20.63;64.74
30875;BME280;17581;43.222;27.924;2023-09-19T01:08:28;101069.25;;;20.60;65.02
30875;BME280;17581;43.222;27.924;2023-09-19T01:11:21;101070.09;;;20.61;64.51
30875;BME280;17581;43.222;27.924;2023-09-19T01:16:49;101066.47;;;20.69;64.74
30875;BME280;17581;43.222;27.924;2023-09-19T01:22:10;101059.97;;;20.70;64.87
30875;BME280;17581;43.222;27.924;2023-09-19T01:30:24;101022.47;;;20.55;64.33
30875;BME280;17581;43.222;27.924;2023-09-19T01:32:53;101040.88;;;20.61;64.45
30875;BME280;17581;43.222;27.924;2023-09-19T01:35:19;101042.22;;;20.66;64.42
30875;BME280;17581;43.222;27.924;2023-09-19T01:37:44;101034.56;;;20.61;64.29
30875;BME280;17581;43.222;27.924;2023-09-19T01:40:13;101047.38;;;20.60;64.35
30875;BME280;17581;43.222;27.924;2023-09-19T01:42:48;101045.47;;;20.61;64.57
30875;BME280;17581;43.222;27.924;2023-09-19T01:51:01;101057.03;;;20.48;65.16
30875;BME280;17581;43.222;27.924;2023-09-19T01:53:35;101059.56;;;20.50;65.04
30875;BME280;17581;43.222;27.924;2023-09-19T01:56:08;101045.41;;;20.46;65.55
30875;BME280;17581;43.222;27.924;2023-09-19T01:58:45;101057.03;;;20.48;65.74
30875;BME280;17581;43.222;27.924;2023-09-19T02:01:19;101046.13;;;20.40;65.91
30875;BME280;17581;43.222;27.924;2023-09-19T02:03:47;101063.66;;;20.54;65.88
30875;BME280;17581;43.222;27.924;2023-09-19T02:06:17;101052.72;;;20.54;65.75
30875;BME280;17581;43.222;27.924;2023-09-19T02:08:44;101055.63;;;20.52;65.80
30875;BME280;17581;43.222;27.924;2023-09-19T02:11:13;101051.72;;;20.47;65.93
30875;BME280;17581;43.222;27.924;2023-09-19T02:13:39;101059.69;;;20.56;66.03
30875;BME280;17581;43.222;27.924;2023-09-19T02:16:06;101028.66;;;20.49;65.88
30875;BME280;17581;43.222;27.924;2023-09-19T02:18:32;101061.34;;;20.66;65.84
30875;BME280;17581;43.222;27.924;2023-09-19T02:21:03;101031.22;;;20.51;65.80
30875;BME280;17581;43.222;27.924;2023-09-19T02:23:29;101054.91;;;20.58;65.72
30875;BME280;17581;43.222;27.924;2023-09-19T02:25:58;101060.38;;;20.58;65.74
30875;BME280;17581;43.222;27.924;2023-09-19T02:28:26;101050.16;;;20.52;65.58
30875;BME280;17581;43.222;27.924;2023-09-19T02:30:55;101054.94;;;20.50;65.50
30875;BME280;17581;43.222;27.924;2023-09-19T02:33:21;101055.81;;;20.51;65.45
30875;BME280;17581;43.222;27.924;2023-09-19T02:35:47;101029.56;;;20.34;65.72
30875;BME280;17581;43.222;27.924;2023-09-19T02:38:12;101046.81;;;20.42;65.61
30875;BME280;17581;43.222;27.924;2023-09-19T02:40:38;101044.91;;;20.43;65.50
30875;BME280;17581;43.222;27.924;2023-09-19T02:43:04;101048.19;;;20.38;65.69
30875;BME280;17581;43.222;27.924;2023-09-19T02:45:30;101037.97;;;20.32;66.03
30875;BME280;17581;43.222;27.924;2023-09-19T02:47:56;101024.31;;;20.24;65.79
30875;BME280;17581;43.222;27.924;2023-09-19T02:50:22;101032.19;;;20.27;66.33
30875;BME280;17581;43.222;27.924;2023-09-19T02:52:48;101045.00;;;20.27;66.77
30875;BME280;17581;43.222;27.924;2023-09-19T02:55:15;101042.75;;;20.22;66.99
30875;BME280;17581;43.222;27.924;2023-09-19T02:58:09;101044.81;;;20.20;67.17
30875;BME280;17581;43.222;27.924;2023-09-19T03:00:37;101038.69;;;20.10;67.58
30875;BME280;17581;43.222;27.924;2023-09-19T03:03:03;101006.69;;;19.88;67.85
30875;BME280;17581;43.222;27.924;2023-09-19T03:05:29;101039.41;;;20.04;67.97
30875;BME280;17581;43.222;27.924;2023-09-19T03:07:56;101039.75;;;20.01;68.16
30875;BME280;17581;43.222;27.924;2023-09-19T03:10:22;101038.03;;;20.00;68.43
30875;BME280;17581;43.222;27.924;2023-09-19T03:12:49;101008.75;;;19.86;68.47
30875;BME280;17581;43.222;27.924;2023-09-19T03:15:15;101040.13;;;19.98;68.67
30875;BME280;17581;43.222;27.924;2023-09-19T03:17:47;101017.13;;;19.84;68.56
30875;BME280;17581;43.222;27.924;2023-09-19T03:20:13;101031.25;;;19.96;68.68
30875;BME280;17581;43.222;27.924;2023-09-19T03:22:40;101035.19;;;19.93;68.52
30875;BME280;17581;43.222;27.924;2023-09-19T03:25:06;101041.66;;;19.92;68.40
30875;BME280;17581;43.222;27.924;2023-09-19T03:27:36;101041.31;;;19.95;68.40
30875;BME280;17581;43.222;27.924;2023-09-19T03:30:02;101053.25;;;19.94;68.54
30875;BME280;17581;43.222;27.924;2023-09-19T03:32:33;101051.38;;;19.95;68.71
30875;BME280;17581;43.222;27.924;2023-09-19T03:35:00;101028.91;;;19.77;68.82
30875;BME280;17581;43.222;27.924;2023-09-19T03:37:25;101055.16;;;19.86;69.14
30875;BME280;17581;43.222;27.924;2023-09-19T03:39:51;101056.19;;;19.85;69.30
30875;BME280;17581;43.222;27.924;2023-09-19T03:42:17;101049.03;;;19.84;69.57
30875;BME280;17581;43.222;27.924;2023-09-19T03:44:42;101042.88;;;19.82;69.44
30875;BME280;17581;43.222;27.924;2023-09-19T03:47:08;101063.00;;;19.89;69.38
30875;BME280;17581;43.222;27.924;2023-09-19T03:49:33;101047.13;;;19.92;68.89
30875;BME280;17581;43.222;27.924;2023-09-19T03:51:59;101048.16;;;19.91;68.85
30875;BME280;17581;43.222;27.924;2023-09-19T03:54:24;101051.72;;;19.92;68.95
30875;BME280;17581;43.222;27.924;2023-09-19T03:56:50;101053.09;;;19.96;68.57
30875;BME280;17581;43.222;27.924;2023-09-19T03:59:15;101052.25;;;19.95;68.84
30875;BME280;17581;43.222;27.924;2023-09-19T04:01:41;101035.53;;;19.82;69.01
30875;BME280;17581;43.222;27.924;2023-09-19T04:04:07;101059.41;;;19.96;69.08
30875;BME280;17581;43.222;27.924;2023-09-19T04:06:35;101048.63;;;20.03;68.86
30875;BME280;17581;43.222;27.924;2023-09-19T04:09:02;101025.47;;;19.83;68.36
30875;BME280;17581;43.222;27.924;2023-09-19T04:11:29;101022.41;;;19.86;68.50
30875;BME280;17581;43.222;27.924;2023-09-19T04:13:54;101045.88;;;20.03;68.44
30875;BME280;17581;43.222;27.924;2023-09-19T04:16:20;101042.81;;;20.06;68.03
30875;BME280;17581;43.222;27.924;2023-09-19T04:18:45;101039.06;;;20.07;67.55
30875;BME280;17581;43.222;27.924;2023-09-19T04:21:10;101033.59;;;20.07;67.81
30875;BME280;17581;43.222;27.924;2023-09-19T04:23:36;101006.69;;;19.88;67.96
30875;BME280;17581;43.222;27.924;2023-09-19T04:26:01;101023.06;;;19.88;68.18
30875;BME280;17581;43.222;27.924;2023-09-19T04:28:29;101029.19;;;19.98;68.34
30875;BME280;17581;43.222;27.924;2023-09-19T04:30:54;101026.81;;;19.95;68.61
30875;BME280;17581;43.222;27.924;2023-09-19T04:33:20;101013.34;;;19.93;68.89
30875;BME280;17581;43.222;27.924;2023-09-19T04:35:49;100999.19;;;19.90;68.93
30875;BME280;17581;43.222;27.924;2023-09-19T04:38:14;101028.47;;;20.04;69.04
30875;BME280;17581;43.222;27.924;2023-09-19T04:40:40;101028.69;;;20.02;69.45
30875;BME280;17581;43.222;27.924;2023-09-19T04:43:05;101032.88;;;20.13;69.29
30875;BME280;17581;43.222;27.924;2023-09-19T04:45:33;101036.97;;;20.17;69.14
30875;BME280;17581;43.222;27.924;2023-09-19T04:47:58;101035.75;;;20.28;69.01
30875;BME280;17581;43.222;27.924;2023-09-19T04:50:23;101031.84;;;20.30;68.89
30875;BME280;17581;43.222;27.924;2023-09-19T04:52:51;100997.00;;;20.24;68.59
30875;BME280;17581;43.222;27.924;2023-09-19T04:55:20;101029.13;;;20.53;68.46
30875;BME280;17581;43.222;27.924;2023-09-19T04:57:49;100992.47;;;20.47;68.22
30875;BME280;17581;43.222;27.924;2023-09-19T05:00:17;101021.34;;;20.73;68.22
30875;BME280;17581;43.222;27.924;2023-09-19T05:02:45;100992.50;;;20.70;67.72
30875;BME280;17581;43.222;27.924;2023-09-19T05:05:11;100987.31;;;20.75;67.40
30875;BME280;17581;43.222;27.924;2023-09-19T05:07:42;101017.72;;;21.03;67.19
30875;BME280;17581;43.222;27.924;2023-09-19T05:10:08;100974.19;;;20.93;67.08
30875;BME280;17581;43.222;27.924;2023-09-19T05:12:36;101015.72;;;21.20;66.78
30875;BME280;17581;43.222;27.924;2023-09-19T05:15:05;101000.03;;;21.13;66.59
30875;BME280;17581;43.222;27.924;2023-09-19T05:17:35;101013.41;;;21.31;66.48
30875;BME280;17581;43.222;27.924;2023-09-19T05:20:01;101012.28;;;21.40;65.84
30875;BME280;17581;43.222;27.924;2023-09-19T05:22:40;101013.53;;;21.52;65.67
30875;BME280;17581;43.222;27.924;2023-09-19T05:25:06;101007.97;;;21.60;65.40
30875;BME280;17581;43.222;27.924;2023-09-19T05:27:32;101008.94;;;21.67;65.15
30875;BME280;17581;43.222;27.924;2023-09-19T05:29:59;101011.84;;;21.81;64.92
30875;BME280;17581;43.222;27.924;2023-09-19T05:32:24;101005.72;;;21.79;64.81
30875;BME280;17581;43.222;27.924;2023-09-19T05:34:50;101006.31;;;21.89;64.45
30875;BME280;17581;43.222;27.924;2023-09-19T05:37:18;101017.75;;;22.07;64.02
30875;BME280;17581;43.222;27.924;2023-09-19T05:39:44;101013.00;;;22.15;63.49
30875;BME280;17581;43.222;27.924;2023-09-19T05:42:09;101002.16;;;22.22;63.24
30875;BME280;17581;43.222;27.924;2023-09-19T05:44:35;101010.34;;;22.37;63.14
30875;BME280;17581;43.222;27.924;2023-09-19T05:47:02;101003.31;;;22.49;62.49
30875;BME280;17581;43.222;27.924;2023-09-19T05:49:28;100997.25;;;22.53;62.17
30875;BME280;17581;43.222;27.924;2023-09-19T05:51:53;100978.56;;;22.42;61.99
30875;BME280;17581;43.222;27.924;2023-09-19T05:54:20;100997.63;;;22.65;62.05
30875;BME280;17581;43.222;27.924;2023-09-19T05:56:46;100998.34;;;22.73;61.75
30875;BME280;17581;43.222;27.924;2023-09-19T05:59:12;101006.72;;;22.87;61.52
30875;BME280;17581;43.222;27.924;2023-09-19T06:01:41;101008.31;;;22.96;61.04
30875;BME280;17581;43.222;27.924;2023-09-19T06:04:07;101012.78;;;23.03;61.14
30875;BME280;17581;43.222;27.924;2023-09-19T06:06:33;101013.06;;;23.08;60.86
30875;BME280;17581;43.222;27.924;2023-09-19T06:09:02;101004.47;;;23.18;60.64
30875;BME280;17581;43.222;27.924;2023-09-19T06:11:27;101008.28;;;23.17;60.19
30875;BME280;17581;43.222;27.924;2023-09-19T06:13:54;101010.56;;;23.13;60.08
30875;BME280;17581;43.222;27.924;2023-09-19T06:16:20;100994.59;;;22.96;59.89
30875;BME280;17581;43.222;27.924;2023-09-19T06:18:45;101024.53;;;23.18;59.70
30875;BME280;17581;43.222;27.924;2023-09-19T06:21:10;101020.53;;;23.21;60.06
30875;BME280;17581;43.222;27.924;2023-09-19T06:23:36;101017.41;;;23.24;59.92
30875;BME280;17581;43.222;27.924;2023-09-19T06:26:01;100998.19;;;23.24;59.73
30875;BME280;17581;43.222;27.924;2023-09-19T06:28:30;101029.56;;;23.57;59.40
30875;BME280;17581;43.222;27.924;2023-09-19T06:30:56;101023.53;;;23.68;59.07
30875;BME280;17581;43.222;27.924;2023-09-19T06:33:22;101021.84;;;23.74;58.41
30875;BME280;17581;43.222;27.924;2023-09-19T06:35:51;101023.69;;;23.95;58.58
30875;BME280;17581;43.222;27.924;2023-09-19T06:38:18;101029.53;;;24.13;57.86
30875;BME280;17581;43.222;27.924;2023-09-19T06:40:44;101032.66;;;24.10;57.62
30875;BME280;17581;43.222;27.924;2023-09-19T06:43:10;101036.13;;;24.18;57.42
30875;BME280;17581;43.222;27.924;2023-09-19T06:45:36;101033.66;;;24.30;57.10
30875;BME280;17581;43.222;27.924;2023-09-19T06:48:02;101022.72;;;24.43;56.91
30875;BME280;17581;43.222;27.924;2023-09-19T06:50:28;101036.56;;;24.69;56.51
30875;BME280;17581;43.222;27.924;2023-09-19T06:52:58;101040.66;;;24.86;56.02
30875;BME280;17581;43.222;27.924;2023-09-19T06:55:25;101035.19;;;25.06;55.24
30875;BME280;17581;43.222;27.924;2023-09-19T06:57:53;101028.41;;;25.09;54.61
30875;BME280;17581;43.222;27.924;2023-09-19T07:00:22;101025.88;;;25.20;54.86
30875;BME280;17581;43.222;27.924;2023-09-19T07:02:58;101027.78;;;25.26;54.19
30875;BME280;17581;43.222;27.924;2023-09-19T07:05:29;101033.13;;;25.41;54.09
30875;BME280;17581;43.222;27.924;2023-09-19T07:07:56;100978.84;;;24.96;54.00
30875;BME280;17581;43.222;27.924;2023-09-19T07:10:24;101035.22;;;25.26;54.46
30875;BME280;17581;43.222;27.924;2023-09-19T07:12:58;100997.50;;;25.20;53.97
30875;BME280;17581;43.222;27.924;2023-09-19T07:15:24;101031.88;;;25.50;53.82
30875;BME280;17581;43.222;27.924;2023-09-19T07:17:53;101003.44;;;25.43;53.33
30875;BME280;17581;43.222;27.924;2023-09-19T07:20:22;101031.84;;;25.76;53.13
30875;BME280;17581;43.222;27.924;2023-09-19T07:22:51;101030.56;;;25.79;52.63
30875;BME280;17581;43.222;27.924;2023-09-19T07:25:16;101024.00;;;25.80;52.49
30875;BME280;17581;43.222;27.924;2023-09-19T07:27:42;100998.78;;;25.76;52.41
30875;BME280;17581;43.222;27.924;2023-09-19T07:30:09;101029.03;;;26.03;52.29
30875;BME280;17581;43.222;27.924;2023-09-19T07:32:35;101032.81;;;26.28;52.20
30875;BME280;17581;43.222;27.924;2023-09-19T07:35:02;101025.13;;;26.36;51.10
30875;BME280;17581;43.222;27.924;2023-09-19T07:37:29;101021.72;;;26.47;50.56
30875;BME280;17581;43.222;27.924;2023-09-19T07:39:56;100998.34;;;26.50;50.24
30875;BME280;17581;43.222;27.924;2023-09-19T07:42:22;101024.03;;;26.95;50.67
30875;BME280;17581;43.222;27.924;2023-09-19T07:44:47;100989.44;;;26.92;49.79
30875;BME280;17581;43.222;27.924;2023-09-19T07:47:16;101018.50;;;26.95;48.79
30875;BME280;17581;43.222;27.924;2023-09-19T07:49:42;100980.34;;;26.79;47.82
30875;BME280;17581;43.222;27.924;2023-09-19T07:52:08;101010.19;;;27.01;47.37
30875;BME280;17581;43.222;27.924;2023-09-19T07:54:35;100997.84;;;27.04;47.30
30875;BME280;17581;43.222;27.924;2023-09-19T07:57:04;101004.28;;;27.23;46.46
30875;BME280;17581;43.222;27.924;2023-09-19T07:59:29;101001.88;;;27.33;46.35
30875;BME280;17581;43.222;27.924;2023-09-19T08:01:55;100997.09;;;27.46;46.38
30875;BME280;17581;43.222;27.924;2023-09-19T08:04:20;100992.41;;;27.47;46.70
30875;BME280;17581;43.222;27.924;2023-09-19T08:06:46;100972.28;;;27.15;47.75
30875;BME280;17581;43.222;27.924;2023-09-19T08:09:11;100963.47;;;27.00;46.66
30875;BME280;17581;43.222;27.924;2023-09-19T08:11:39;100999.53;;;27.05;46.96
30875;BME280;17581;43.222;27.924;2023-09-19T08:14:05;101000.09;;;26.76;47.84
30875;BME280;17581;43.222;27.924;2023-09-19T08:16:32;101001.50;;;26.60;48.23
30875;BME280;17581;43.222;27.924;2023-09-19T08:18:58;101005.59;;;26.44;47.94
30875;BME280;17581;43.222;27.924;2023-09-19T08:21:23;101011.56;;;26.41;47.38
30875;BME280;17581;43.222;27.924;2023-09-19T08:23:50;101009.72;;;26.22;47.63
30875;BME280;17581;43.222;27.924;2023-09-19T08:26:16;100981.34;;;26.02;47.78
30875;BME280;17581;43.222;27.924;2023-09-19T08:28:42;101001.25;;;26.11;47.03
30875;BME280;17581;43.222;27.924;2023-09-19T08:31:08;100992.75;;;26.12;46.95
30875;BME280;17581;43.222;27.924;2023-09-19T08:33:35;100991.88;;;26.25;46.49
30875;BME280;17581;43.222;27.924;2023-09-19T08:36:01;100991.69;;;26.20;44.16
30875;BME280;17581;43.222;27.924;2023-09-19T08:38:31;100992.31;;;26.22;44.75
30875;BME280;17581;43.222;27.924;2023-09-19T08:40:59;100985.13;;;26.14;46.90
30875;BME280;17581;43.222;27.924;2023-09-19T08:43:25;100967.72;;;26.14;47.05
30875;BME280;17581;43.222;27.924;2023-09-19T08:45:58;100968.59;;;26.08;47.01
30875;BME280;17581;43.222;27.924;2023-09-19T08:48:29;100974.91;;;26.21;48.21
30875;BME280;17581;43.222;27.924;2023-09-19T08:51:07;100964.31;;;26.12;47.65
30875;BME280;17581;43.222;27.924;2023-09-19T08:56:44;100970.25;;;26.22;46.10
30875;BME280;17581;43.222;27.924;2023-09-19T08:59:10;100972.16;;;26.21;47.24
30875;BME280;17581;43.222;27.924;2023-09-19T09:01:37;100980.00;;;26.24;49.07
30875;BME280;17581;43.222;27.924;2023-09-19T09:04:08;100960.72;;;26.18;49.85
30875;BME280;17581;43.222;27.924;2023-09-19T09:06:38;100959.22;;;26.22;50.12
30875;BME280;17581;43.222;27.924;2023-09-19T09:09:08;100971.09;;;26.29;48.38
30875;BME280;17581;43.222;27.924;2023-09-19T09:11:34;100953.44;;;26.30;47.39
30875;BME280;17581;43.222;27.924;2023-09-19T09:14:02;100945.38;;;26.35;47.78
30875;BME280;17581;43.222;27.924;2023-09-19T09:16:29;100954.66;;;26.47;47.90
30875;BME280;17581;43.222;27.924;2023-09-19T09:18:55;100958.28;;;26.41;47.46
30875;BME280;17581;43.222;27.924;2023-09-19T09:21:25;100949.84;;;26.36;47.67
30875;BME280;17581;43.222;27.924;2023-09-19T09:23:50;100938.00;;;26.22;47.00
30875;BME280;17581;43.222;27.924;2023-09-19T09:26:17;100941.41;;;26.18;47.34
30875;BME280;17581;43.222;27.924;2023-09-19T09:28:46;100956.69;;;26.14;48.25
30875;BME280;17581;43.222;27.924;2023-09-19T09:31:25;100943.72;;;26.21;47.66
30875;BME280;17581;43.222;27.924;2023-09-19T09:33:56;100941.34;;;26.37;47.74
30875;BME280;17581;43.222;27.924;2023-09-19T09:36:35;100920.56;;;26.35;47.99
30875;BME280;17581;43.222;27.924;2023-09-19T09:39:02;100940.81;;;26.54;47.45
30875;BME280;17581;43.222;27.924;2023-09-19T09:41:41;100938.59;;;26.69;47.17
30875;BME280;17581;43.222;27.924;2023-09-19T09:44:19;100910.81;;;26.64;46.79
30875;BME280;17581;43.222;27.924;2023-09-19T09:46:48;100921.38;;;26.73;46.95
30875;BME280;17581;43.222;27.924;2023-09-19T09:49:27;100929.31;;;26.63;47.37
30875;BME280;17581;43.222;27.924;2023-09-19T09:52:00;100938.72;;;26.49;48.55
30875;BME280;17581;43.222;27.924;2023-09-19T09:54:27;100912.88;;;26.43;48.55
30875;BME280;17581;43.222;27.924;2023-09-19T09:59:53;100936.88;;;26.74;47.79
30875;BME280;17581;43.222;27.924;2023-09-19T10:04:58;100915.50;;;26.63;47.48
30875;BME280;17581;43.222;27.924;2023-09-19T10:07:35;100936.19;;;26.79;46.99
30875;BME280;17581;43.222;27.924;2023-09-19T10:10:06;100925.38;;;26.77;47.26
30875;BME280;17581;43.222;27.924;2023-09-19T10:12:46;100916.63;;;26.87;47.43
30875;BME280;17581;43.222;27.924;2023-09-19T10:15:15;100927.19;;;26.96;46.71
30875;BME280;17581;43.222;27.924;2023-09-19T10:17:42;100926.91;;;27.04;47.41
30875;BME280;17581;43.222;27.924;2023-09-19T10:20:17;100895.47;;;27.06;47.36
30875;BME280;17581;43.222;27.924;2023-09-19T10:23:05;100920.41;;;27.17;47.23
30875;BME280;17581;43.222;27.924;2023-09-19T10:25:36;100914.59;;;27.00;47.89
30875;BME280;17581;43.222;27.924;2023-09-19T10:28:02;100923.78;;;26.63;48.82
30875;BME280;17581;43.222;27.924;2023-09-19T10:30:37;100923.91;;;26.81;48.58
30875;BME280;17581;43.222;27.924;2023-09-19T10:33:04;100913.91;;;26.80;49.05
30875;BME280;17581;43.222;27.924;2023-09-19T10:35:33;100917.66;;;26.92;48.59
30875;BME280;17581;43.222;27.924;2023-09-19T10:38:03;100912.63;;;26.76;49.02
30875;BME280;17581;43.222;27.924;2023-09-19T10:40:33;100885.16;;;26.63;49.70
30875;BME280;17581;43.222;27.924;2023-09-19T10:43:04;100908.34;;;26.87;49.72
30875;BME280;17581;43.222;27.924;2023-09-19T10:45:35;100911.31;;;26.85;50.02
30875;BME280;17581;43.222;27.924;2023-09-19T10:48:01;100907.56;;;26.80;49.41
30875;BME280;17581;43.222;27.924;2023-09-19T10:50:33;100910.31;;;26.73;50.45
30875;BME280;17581;43.222;27.924;2023-09-19T10:53:04;100902.50;;;26.70;50.70
30875;BME280;17581;43.222;27.924;2023-09-19T10:55:33;100866.94;;;26.56;50.55
30875;BME280;17581;43.222;27.924;2023-09-19T10:58:01;100862.84;;;26.65;50.26
30875;BME280;17581;43.222;27.924;2023-09-19T11:00:30;100887.28;;;26.61;51.04
30875;BME280;17581;43.222;27.924;2023-09-19T11:05:41;100854.59;;;26.58;50.45
30875;BME280;17581;43.222;27.924;2023-09-19T11:08:07;100876.75;;;26.76;50.74
30875;BME280;17581;43.222;27.924;2023-09-19T11:10:49;100862.34;;;26.43;51.67
30875;BME280;17581;43.222;27.924;2023-09-19T11:13:29;100884.38;;;26.49;51.89
30875;BME280;17581;43.222;27.924;2023-09-19T11:26:44;100866.00;;;26.68;52.52
30875;BME280;17581;43.222;27.924;2023-09-19T11:29:29;100864.59;;;26.59;53.10
30875;BME280;17581;43.222;27.924;2023-09-19T11:31:56;100861.47;;;26.49;53.81
30875;BME280;17581;43.222;27.924;2023-09-19T11:39:40;100873.63;;;26.41;54.86
30875;BME280;17581;43.222;27.924;2023-09-19T11:42:47;100872.09;;;26.45;54.63
30875;BME280;17581;43.222;27.924;2023-09-19T11:48:15;100832.13;;;26.55;52.32
30875;BME280;17581;43.222;27.924;2023-09-19T11:50:44;100844.31;;;26.72;52.94
30875;BME280;17581;43.222;27.924;2023-09-19T11:53:11;100848.53;;;26.81;53.85
30875;BME280;17581;43.222;27.924;2023-09-19T11:55:41;100856.41;;;27.02;51.08
30875;BME280;17581;43.222;27.924;2023-09-19T11:58:09;100822.38;;;26.83;50.84
30875;BME280;17581;43.222;27.924;2023-09-19T12:00:37;100851.72;;;27.02;51.82
30875;BME280;17581;43.222;27.924;2023-09-19T12:03:09;100850.53;;;26.92;52.82
30875;BME280;17581;43.222;27.924;2023-09-19T12:05:36;100793.41;;;26.68;52.49
30875;BME280;17581;43.222;27.924;2023-09-19T12:08:03;100843.38;;;27.09;52.69
30875;BME280;17581;43.222;27.924;2023-09-19T12:10:32;100843.81;;;26.88;51.92
30875;BME280;17581;43.222;27.924;2023-09-19T12:12:58;100831.53;;;26.77;52.09
30875;BME280;17581;43.222;27.924;2023-09-19T12:15:28;100831.53;;;26.77;52.46
30875;BME280;17581;43.222;27.924;2023-09-19T12:17:59;100847.69;;;26.80;52.76
30875;BME280;17581;43.222;27.924;2023-09-19T12:20:45;100842.56;;;26.77;52.35
30875;BME280;17581;43.222;27.924;2023-09-19T12:23:15;100830.25;;;26.80;52.86
30875;BME280;17581;43.222;27.924;2023-09-19T12:25:44;100818.28;;;26.61;53.10
30875;BME280;17581;43.222;27.924;2023-09-19T12:28:12;100833.28;;;26.72;53.30
30875;BME280;17581;43.222;27.924;2023-09-19T12:30:38;100822.06;;;26.67;54.08
30875;BME280;17581;43.222;27.924;2023-09-19T12:33:04;100829.56;;;26.60;53.59
30875;BME280;17581;43.222;27.924;2023-09-19T12:35:31;100832.88;;;26.68;52.88
30875;BME280;17581;43.222;27.924;2023-09-19T12:38:00;100826.13;;;26.64;53.37
30875;BME280;17581;43.222;27.924;2023-09-19T12:40:26;100820.16;;;26.67;53.43
30875;BME280;17581;43.222;27.924;2023-09-19T12:42:54;100812.81;;;26.79;53.59
30875;BME280;17581;43.222;27.924;2023-09-19T12:45:21;100819.00;;;26.81;53.04
30875;BME280;17581;43.222;27.924;2023-09-19T12:48:24;100829.97;;;26.63;53.37
30875;BME280;17581;43.222;27.924;2023-09-19T12:51:10;100814.84;;;26.41;53.77
30875;BME280;17581;43.222;27.924;2023-09-19T12:53:42;100816.47;;;26.48;53.59
30875;BME280;17581;43.222;27.924;2023-09-19T12:56:10;100817.44;;;26.36;54.18
30875;BME280;17581;43.222;27.924;2023-09-19T12:58:54;100793.03;;;26.02;55.45
30875;BME280;17581;43.222;27.924;2023-09-19T13:01:21;100817.38;;;26.11;55.70
30875;BME280;17581;43.222;27.924;2023-09-19T13:04:13;100807.16;;;26.12;55.93
30875;BME280;17581;43.222;27.924;2023-09-19T13:06:40;100811.44;;;26.08;56.14
30875;BME280;17581;43.222;27.924;2023-09-19T13:09:09;100816.75;;;26.03;56.11
30875;BME280;17581;43.222;27.924;2023-09-19T13:11:38;100809.31;;;26.10;55.95
30875;BME280;17581;43.222;27.924;2023-09-19T13:14:22;100804.03;;;26.08;55.82
30875;BME280;17581;43.222;27.924;2023-09-19T13:17:07;100808.81;;;26.26;55.57
30875;BME280;17581;43.222;27.924;2023-09-19T13:22:43;100810.09;;;26.23;56.18
30875;BME280;17581;43.222;27.924;2023-09-19T13:25:17;100812.25;;;26.46;54.90
30875;BME280;17581;43.222;27.924;2023-09-19T13:27:49;100798.91;;;26.43;54.76
30875;BME280;17581;43.222;27.924;2023-09-19T13:30:20;100790.84;;;26.17;55.15
30875;BME280;17581;43.222;27.924;2023-09-19T13:32:47;100795.22;;;26.24;55.14
30875;BME280;17581;43.222;27.924;2023-09-19T13:35:13;100810.19;;;26.41;55.04
30875;BME280;17581;43.222;27.924;2023-09-19T13:37:40;100804.63;;;26.48;54.78
30875;BME280;17581;43.222;27.924;2023-09-19T13:40:11;100806.78;;;26.39;54.36